Time;durP1;ratioP1;P1;durP2;ratioP2;P2;SDS_P1;SDS_P2;PMS_P1;PMS_P2;Temp;Humidity;BMP_temperature;BMP_pressure;BME280_temperature;BME280_humidity;BME280_pressure;Samples;Min_cycle;Max_cycle;Signal;HPM_P1;HPM_P2
2023/01/31 00:00:17;;;;;;;0.63;0.50;;;16.20;70.20;;;;;;6215515;23;20008;-71
2023/01/31 00:02:42;;;;;;;1.40;0.55;;;16.20;70.30;;;;;;6213255;23;20000;-71
2023/01/31 00:05:08;;;;;;;1.83;0.60;;;16.10;70.20;;;;;;6213573;23;20090;-71
2023/01/31 00:07:34;;;;;;;1.35;0.63;;;16.10;70.40;;;;;;6214883;23;20090;-71
2023/01/31 00:09:59;;;;;;;0.80;0.50;;;16.10;70.30;;;;;;6188792;23;20040;-71
2023/01/31 00:12:25;;;;;;;1.63;0.60;;;16.10;70.40;;;;;;6215046;23;19996;-71
2023/01/31 00:14:51;;;;;;;1.05;0.57;;;16.00;70.60;;;;;;6213585;23;20005;-71
2023/01/31 00:17:16;;;;;;;1.00;0.60;;;16.10;70.60;;;;;;6215130;23;20008;-70
2023/01/31 00:19:42;;;;;;;1.27;0.65;;;16.00;70.60;;;;;;6213223;23;20349;-71
2023/01/31 00:22:08;;;;;;;1.05;0.73;;;16.00;70.60;;;;;;6214836;23;20001;-71
2023/01/31 00:24:33;;;;;;;1.38;0.70;;;16.00;70.70;;;;;;6214820;23;20001;-71
2023/01/31 00:26:59;;;;;;;0.57;0.45;;;16.00;71.00;;;;;;6213343;23;20380;-71
2023/01/31 00:29:24;;;;;;;0.82;0.47;;;16.00;71.10;;;;;;6188369;23;20502;-71
2023/01/31 00:31:50;;;;;;;0.40;0.40;;;15.90;71.20;;;;;;6213411;23;20028;-71
2023/01/31 00:34:16;;;;;;;1.88;0.98;;;15.90;71.10;;;;;;6163610;23;20393;-71
2023/01/31 00:36:42;;;;;;;1.25;0.70;;;15.90;71.30;;;;;;6214417;23;20087;-70
2023/01/31 00:39:08;;;;;;;0.93;0.45;;;15.90;71.40;;;;;;6213441;23;20004;-71
2023/01/31 00:41:34;;;;;;;2.75;0.68;;;15.90;71.40;;;;;;6188281;23;20020;-70
2023/01/31 00:44:00;;;;;;;1.00;0.60;;;15.90;71.50;;;;;;6188248;23;20455;-70
2023/01/31 00:46:26;;;;;;;3.33;0.90;;;15.90;71.50;;;;;;6188238;23;19996;-70
2023/01/31 00:48:51;;;;;;;1.17;0.60;;;15.80;71.90;;;;;;6188271;23;20310;-71
2023/01/31 00:51:17;;;;;;;1.42;0.50;;;15.90;72.10;;;;;;6212936;23;20001;-71
2023/01/31 00:53:43;;;;;;;1.50;0.57;;;15.80;71.90;;;;;;6188245;23;20001;-71
2023/01/31 00:56:10;;;;;;;0.55;0.40;;;15.80;72.00;;;;;;6213371;23;20011;-71
2023/01/31 00:58:36;;;;;;;2.58;0.50;;;15.80;72.10;;;;;;6188305;23;20028;-71
2023/01/31 01:01:15;;;;;;;0.60;0.40;;;15.80;72.20;;;;;;6213115;23;20372;-71
2023/01/31 01:03:42;;;;;;;1.48;0.65;;;15.80;72.30;;;;;;6189745;23;20088;-70
2023/01/31 01:06:07;;;;;;;0.65;0.50;;;15.80;72.50;;;;;;6188264;23;20051;-70
2023/01/31 01:08:33;;;;;;;0.75;0.60;;;15.80;72.60;;;;;;6214632;23;20008;-70
2023/01/31 01:11:13;;;;;;;3.63;0.50;;;15.70;72.50;;;;;;6188134;23;19997;-70
2023/01/31 01:13:39;;;;;;;1.15;0.50;;;15.80;72.60;;;;;;6213199;23;20023;-70
2023/01/31 01:16:14;;;;;;;1.50;0.75;;;15.80;72.60;;;;;;6188172;23;20437;-70
2023/01/31 01:18:40;;;;;;;1.35;0.50;;;15.70;72.60;;;;;;6212760;23;19997;-70
2023/01/31 01:21:10;;;;;;;1.38;0.65;;;15.70;72.60;;;;;;6212911;23;20015;-70
2023/01/31 01:23:37;;;;;;;1.15;0.40;;;15.70;72.70;;;;;;6188980;23;19997;-70
2023/01/31 01:26:04;;;;;;;2.55;0.57;;;15.70;72.50;;;;;;6187841;23;20024;-70
2023/01/31 01:28:32;;;;;;;1.15;0.65;;;15.70;72.70;;;;;;6214649;23;20051;-70
2023/01/31 01:30:58;;;;;;;1.00;0.60;;;15.70;72.70;;;;;;6187956;23;19997;-70
2023/01/31 01:33:24;;;;;;;1.15;0.50;;;15.60;72.60;;;;;;6214676;23;20059;-70
2023/01/31 01:35:49;;;;;;;0.68;0.43;;;15.60;72.70;;;;;;6212810;23;20078;-70
2023/01/31 01:38:15;;;;;;;1.27;0.40;;;15.60;72.70;;;;;;6214416;23;20341;-70
2023/01/31 01:40:41;;;;;;;0.93;0.50;;;15.60;72.70;;;;;;6214218;23;20032;-70
2023/01/31 01:43:09;;;;;;;0.90;0.30;;;15.60;72.60;;;;;;6212995;23;20346;-70
2023/01/31 01:45:36;;;;;;;0.63;0.50;;;15.60;72.70;;;;;;6188258;23;20001;-70
2023/01/31 01:48:04;;;;;;;0.70;0.43;;;15.60;72.70;;;;;;6187705;23;20075;-70
2023/01/31 01:50:33;;;;;;;0.52;0.40;;;15.60;72.70;;;;;;6212898;23;20051;-70
2023/01/31 01:53:10;;;;;;;0.93;0.57;;;15.60;72.70;;;;;;6188203;23;20008;-71
2023/01/31 01:56:08;;;;;;;0.50;0.47;;;15.50;72.70;;;;;;6214423;23;20055;-70
2023/01/31 01:58:44;;;;;;;1.73;0.50;;;15.60;72.90;;;;;;6184784;23;20005;-70
2023/01/31 02:01:09;;;;;;;0.50;0.50;;;15.60;72.90;;;;;;6188516;23;20005;-70
2023/01/31 02:03:35;;;;;;;0.77;0.45;;;15.50;73.10;;;;;;6187614;23;20005;-70
2023/01/31 02:06:02;;;;;;;1.23;0.60;;;15.60;72.90;;;;;;6187918;23;20000;-70
2023/01/31 02:08:30;;;;;;;0.75;0.50;;;15.50;73.10;;;;;;6188239;23;20008;-71
2023/01/31 02:11:02;;;;;;;1.25;0.45;;;15.50;73.00;;;;;;6214259;23;19997;-70
2023/01/31 02:13:28;;;;;;;1.00;0.50;;;15.50;73.10;;;;;;6189024;23;19996;-70
2023/01/31 02:15:54;;;;;;;1.33;0.50;;;15.50;73.10;;;;;;6163152;23;20000;-70
2023/01/31 02:18:20;;;;;;;1.05;0.57;;;15.50;73.10;;;;;;6214627;23;19997;-70
2023/01/31 02:21:13;;;;;;;1.67;0.90;;;15.50;73.10;;;;;;6189732;23;20000;-71
2023/01/31 02:23:38;;;;;;;0.50;0.40;;;15.50;73.10;;;;;;6216265;23;20054;-70
2023/01/31 02:26:28;;;;;;;0.77;0.50;;;15.40;73.10;;;;;;6215793;23;20013;-70
2023/01/31 02:29:53;;;;;;;0.55;0.38;;;15.40;73.10;;;;;;6216128;23;19997;-70
2023/01/31 02:32:38;;;;;;;0.40;0.40;;;15.40;73.10;;;;;;6070900;23;20360;-70
2023/01/31 02:35:16;;;;;;;0.85;0.60;;;15.40;73.10;;;;;;6094771;23;20014;-70
2023/01/31 02:38:07;;;;;;;1.13;0.40;;;15.40;73.30;;;;;;6071257;23;20011;-70
2023/01/31 02:40:49;;;;;;;0.45;0.40;;;15.40;73.50;;;;;;6094862;23;20463;-70
2023/01/31 02:44:57;;;;;;;0.55;0.30;;;15.40;73.40;;;;;;6094915;23;20006;-70
2023/01/31 02:46:20;;;;;;;0.55;0.50;;;15.40;73.50;;;;;;6077076;23;20006;-70
2023/01/31 02:49:01;;;;;;;0.93;0.30;;;15.30;73.50;;;;;;6046690;23;20013;-70
2023/01/31 02:51:29;;;;;;;0.70;0.32;;;15.30;73.50;;;;;;6070904;23;20081;-70
2023/01/31 02:54:16;;;;;;;0.77;0.45;;;15.30;73.50;;;;;;6070844;23;20007;-70
2023/01/31 02:56:43;;;;;;;0.63;0.30;;;15.30;73.50;;;;;;6071149;23;20010;-70
2023/01/31 02:59:20;;;;;;;0.70;0.50;;;15.30;73.70;;;;;;6070668;23;20081;-70
2023/01/31 03:01:47;;;;;;;0.63;0.30;;;15.30;73.60;;;;;;6070888;23;20014;-70
2023/01/31 03:04:13;;;;;;;0.80;0.52;;;15.30;73.70;;;;;;6070728;23;20033;-70
2023/01/31 03:06:53;;;;;;;0.77;0.60;;;15.30;73.60;;;;;;6186418;23;20460;-70
2023/01/31 03:10:00;;;;;;;0.75;0.57;;;15.30;73.70;;;;;;6215844;23;20036;-70
2023/01/31 03:12:35;;;;;;;0.50;0.30;;;15.20;73.70;;;;;;6094299;23;20007;-70
2023/01/31 03:15:09;;;;;;;1.58;0.57;;;15.20;73.90;;;;;;6071079;23;20454;-70
2023/01/31 03:18:08;;;;;;;0.50;0.40;;;15.20;73.90;;;;;;6071457;23;20005;-70
2023/01/31 03:21:01;;;;;;;0.95;0.63;;;15.20;73.70;;;;;;6083775;23;20013;-70
2023/01/31 03:23:29;;;;;;;0.65;0.40;;;15.20;74.00;;;;;;6067608;23;20494;-70
2023/01/31 03:25:56;;;;;;;0.70;0.43;;;15.20;73.90;;;;;;6070715;23;20563;-70
2023/01/31 03:28:27;;;;;;;0.73;0.45;;;15.20;73.90;;;;;;6070422;23;20006;-70
2023/01/31 03:31:04;;;;;;;3.10;0.60;;;15.20;74.00;;;;;;6070147;23;20006;-70
2023/01/31 03:33:35;;;;;;;1.08;0.40;;;15.20;74.00;;;;;;6071370;23;20030;-70
2023/01/31 03:36:05;;;;;;;0.63;0.40;;;15.20;74.00;;;;;;6070346;23;20002;-70
2023/01/31 03:38:33;;;;;;;0.93;0.50;;;15.10;74.00;;;;;;6070312;23;20098;-70
2023/01/31 03:41:05;;;;;;;1.05;0.47;;;15.10;74.10;;;;;;6070337;23;20006;-70
2023/01/31 03:43:36;;;;;;;0.65;0.40;;;15.10;74.10;;;;;;6070195;23;20013;-70
2023/01/31 03:46:09;;;;;;;0.50;0.50;;;15.10;74.10;;;;;;6070721;23;20101;-70
2023/01/31 03:48:37;;;;;;;1.13;0.50;;;15.10;74.10;;;;;;6100721;23;20005;-70
2023/01/31 03:51:05;;;;;;;0.82;0.60;;;15.10;74.00;;;;;;6188814;23;20050;-70
2023/01/31 03:53:45;;;;;;;0.73;0.40;;;15.10;74.00;;;;;;6189230;23;20338;-70
2023/01/31 03:56:20;;;;;;;0.43;0.43;;;15.10;74.00;;;;;;6213827;23;20004;-70
2023/01/31 03:58:52;;;;;;;2.97;0.40;;;15.10;74.20;;;;;;6213705;23;20016;-70
2023/01/31 04:01:18;;;;;;;0.40;0.40;;;15.10;74.10;;;;;;6215130;23;20043;-70
2023/01/31 04:03:43;;;;;;;1.20;0.50;;;15.10;74.20;;;;;;6188750;23;20004;-70
2023/01/31 04:06:09;;;;;;;1.73;0.50;;;15.10;74.30;;;;;;6215100;23;20001;-70
2023/01/31 04:08:35;;;;;;;0.50;0.30;;;15.00;74.20;;;;;;6189190;23;20007;-70
2023/01/31 04:11:05;;;;;;;0.73;0.40;;;15.00;74.20;;;;;;6214971;23;20004;-70
2023/01/31 04:13:30;;;;;;;0.70;0.30;;;15.00;74.30;;;;;;6188664;23;20114;-70
2023/01/31 04:15:56;;;;;;;1.30;0.60;;;15.00;74.30;;;;;;6188475;23;20028;-71
2023/01/31 04:18:22;;;;;;;0.47;0.30;;;15.00;74.60;;;;;;6215058;23;19996;-71
2023/01/31 04:20:47;;;;;;;2.05;0.65;;;15.00;74.50;;;;;;6214985;23;19997;-71
2023/01/31 04:23:13;;;;;;;0.77;0.40;;;15.00;74.50;;;;;;6214849;23;20064;-71
2023/01/31 04:25:38;;;;;;;0.95;0.50;;;15.00;74.50;;;;;;6214816;23;20070;-71
2023/01/31 04:28:04;;;;;;;0.70;0.40;;;15.00;74.60;;;;;;6214614;23;20066;-71
2023/01/31 04:30:30;;;;;;;0.88;0.40;;;15.00;74.50;;;;;;6214989;23;20504;-71
2023/01/31 04:32:55;;;;;;;1.63;0.50;;;15.00;74.60;;;;;;6213466;23;19996;-71
2023/01/31 04:35:21;;;;;;;0.57;0.32;;;15.00;74.50;;;;;;6214690;23;20087;-70
2023/01/31 04:37:47;;;;;;;0.40;0.40;;;15.00;74.60;;;;;;6214832;23;20005;-70
2023/01/31 04:40:13;;;;;;;0.38;0.30;;;15.00;74.70;;;;;;6212973;23;20010;-70
2023/01/31 04:42:39;;;;;;;1.02;0.50;;;14.90;74.60;;;;;;6213183;23;20000;-70
2023/01/31 04:45:05;;;;;;;0.22;0.20;;;15.00;74.80;;;;;;6214561;23;20119;-70
2023/01/31 04:47:30;;;;;;;0.40;0.40;;;15.00;75.70;;;;;;6213702;23;20024;-70
2023/01/31 04:49:56;;;;;;;0.30;0.30;;;15.00;74.80;;;;;;6213148;23;20004;-70
2023/01/31 04:52:23;;;;;;;0.50;0.40;;;15.00;74.80;;;;;;6214591;23;20011;-71
2023/01/31 04:54:49;;;;;;;0.60;0.35;;;14.90;74.80;;;;;;6214790;23;20005;-70
2023/01/31 04:57:14;;;;;;;0.25;0.25;;;14.90;74.80;;;;;;6212921;23;20833;-70
2023/01/31 04:59:40;;;;;;;0.90;0.60;;;14.90;74.80;;;;;;6188259;23;20007;-70
2023/01/31 05:02:05;;;;;;;0.52;0.40;;;14.90;75.00;;;;;;6214511;23;20000;-70
2023/01/31 05:04:31;;;;;;;0.95;0.30;;;14.90;74.80;;;;;;6214596;23;20004;-70
2023/01/31 05:06:57;;;;;;;1.10;0.50;;;14.90;74.90;;;;;;6214565;23;20385;-71
2023/01/31 05:09:23;;;;;;;0.75;0.35;;;14.90;74.90;;;;;;6214658;23;20012;-70
2023/01/31 05:11:49;;;;;;;0.65;0.60;;;14.90;74.80;;;;;;6213021;23;20023;-70
2023/01/31 05:14:15;;;;;;;1.45;0.30;;;14.90;74.80;;;;;;6212976;23;20441;-70
2023/01/31 05:16:45;;;;;;;0.30;0.30;;;14.90;75.00;;;;;;6213099;23;20005;-70
2023/01/31 05:19:14;;;;;;;1.13;0.30;;;14.90;75.00;;;;;;6212907;23;20453;-70
2023/01/31 05:21:57;;;;;;;0.52;0.40;;;14.90;74.80;;;;;;6213084;23;20072;-70
2023/01/31 05:24:30;;;;;;;0.70;0.40;;;14.90;75.00;;;;;;6213207;23;20062;-71
2023/01/31 05:26:57;;;;;;;0.57;0.30;;;14.90;75.10;;;;;;6189235;23;20095;-71
2023/01/31 05:29:32;;;;;;;1.00;0.57;;;14.90;75.00;;;;;;6188328;23;20518;-71
2023/01/31 05:31:59;;;;;;;2.17;0.40;;;14.90;75.10;;;;;;6187738;23;20011;-71
2023/01/31 05:34:25;;;;;;;0.52;0.38;;;14.90;75.10;;;;;;6188047;23;20000;-71
2023/01/31 05:36:51;;;;;;;0.73;0.60;;;14.80;75.00;;;;;;6188288;23;20071;-70
2023/01/31 05:39:17;;;;;;;1.75;0.50;;;14.80;75.10;;;;;;6187900;23;20011;-70
2023/01/31 05:41:42;;;;;;;0.50;0.32;;;14.80;75.20;;;;;;6212627;23;20032;-70
2023/01/31 05:44:09;;;;;;;0.50;0.30;;;14.80;75.10;;;;;;6187705;23;20001;-70
2023/01/31 05:46:35;;;;;;;0.68;0.47;;;14.80;75.10;;;;;;6188266;23;20001;-70
2023/01/31 05:49:00;;;;;;;0.35;0.30;;;14.80;75.20;;;;;;6188016;23;20086;-70
2023/01/31 05:51:26;;;;;;;1.13;0.50;;;14.70;75.10;;;;;;6214839;23;20476;-70
2023/01/31 05:53:53;;;;;;;1.30;0.30;;;14.80;75.20;;;;;;6216387;23;20008;-70
2023/01/31 05:56:19;;;;;;;0.45;0.30;;;14.70;75.10;;;;;;6214617;23;20036;-70
2023/01/31 05:58:49;;;;;;;0.93;0.52;;;14.70;75.30;;;;;;6214923;23;20009;-70
2023/01/31 06:01:18;;;;;;;0.45;0.28;;;14.70;75.10;;;;;;6216328;23;20032;-70
2023/01/31 06:03:44;;;;;;;0.98;0.50;;;14.70;75.10;;;;;;6215002;23;20481;-70
2023/01/31 06:06:09;;;;;;;1.27;0.50;;;14.80;75.30;;;;;;6216149;23;20056;-70
2023/01/31 06:08:35;;;;;;;1.55;0.40;;;14.70;75.20;;;;;;6216027;23;20004;-70
2023/01/31 06:11:03;;;;;;;0.63;0.40;;;14.70;75.20;;;;;;6216477;23;20004;-70
2023/01/31 06:13:29;;;;;;;0.70;0.50;;;14.70;75.40;;;;;;6214987;23;19997;-70
2023/01/31 06:15:55;;;;;;;0.30;0.30;;;14.70;75.40;;;;;;6215864;23;20004;-70
2023/01/31 06:18:20;;;;;;;1.13;0.40;;;14.70;75.60;;;;;;6215725;23;20054;-70
2023/01/31 06:20:46;;;;;;;0.90;0.70;;;14.80;75.40;;;;;;6215119;23;20001;-70
2023/01/31 06:23:12;;;;;;;1.98;0.50;;;14.70;75.30;;;;;;6216394;23;20004;-70
2023/01/31 06:25:37;;;;;;;1.60;0.50;;;14.70;75.40;;;;;;6214987;23;20445;-70
2023/01/31 06:28:03;;;;;;;0.52;0.40;;;14.70;75.40;;;;;;6216588;23;20028;-70
2023/01/31 06:30:29;;;;;;;0.45;0.30;;;14.70;76.50;;;;;;6215239;23;20028;-70
2023/01/31 06:32:54;;;;;;;0.73;0.25;;;14.70;75.50;;;;;;6215451;23;20430;-70
2023/01/31 06:35:20;;;;;;;0.80;0.40;;;14.70;75.50;;;;;;6215035;23;20418;-70
2023/01/31 06:37:46;;;;;;;0.88;0.30;;;14.70;75.50;;;;;;6216178;23;20024;-70
2023/01/31 06:40:11;;;;;;;1.42;0.32;;;14.70;75.60;;;;;;6215210;23;20015;-70
2023/01/31 06:42:37;;;;;;;1.10;0.45;;;14.70;75.60;;;;;;6216670;23;20007;-70
2023/01/31 06:45:03;;;;;;;1.02;0.45;;;14.60;75.60;;;;;;6215129;23;20004;-70
2023/01/31 06:47:28;;;;;;;0.90;0.40;;;14.60;75.60;;;;;;6215156;23;20005;-70
2023/01/31 06:49:54;;;;;;;0.90;0.40;;;14.70;75.60;;;;;;6216403;23;20004;-70
2023/01/31 06:52:20;;;;;;;0.98;0.40;;;14.60;75.70;;;;;;6214417;23;20001;-70
2023/01/31 06:54:45;;;;;;;1.23;0.50;;;14.60;75.70;;;;;;6216426;23;20067;-70
2023/01/31 06:57:11;;;;;;;2.63;0.70;;;14.70;75.70;;;;;;6214714;23;20015;-70
2023/01/31 06:59:36;;;;;;;0.55;0.30;;;14.60;75.70;;;;;;6216582;23;20414;-70
2023/01/31 07:02:02;;;;;;;0.65;0.32;;;14.60;75.70;;;;;;6214520;23;20005;-70
2023/01/31 07:04:27;;;;;;;0.60;0.60;;;14.60;75.70;;;;;;6214699;23;20019;-70
2023/01/31 07:06:53;;;;;;;1.02;0.50;;;14.60;75.80;;;;;;6214633;23;20329;-71
2023/01/31 07:09:19;;;;;;;0.77;0.40;;;14.60;75.90;;;;;;6216318;23;20001;-70
2023/01/31 07:11:45;;;;;;;0.68;0.30;;;14.60;75.90;;;;;;6187990;23;20370;-70
2023/01/31 07:14:10;;;;;;;1.45;0.47;;;14.60;75.80;;;;;;6215648;23;20075;-70
2023/01/31 07:16:37;;;;;;;1.05;0.40;;;14.60;75.80;;;;;;6215440;23;20000;-70
2023/01/31 07:19:02;;;;;;;0.30;0.30;;;14.60;75.90;;;;;;6213394;23;20036;-71
2023/01/31 07:21:28;;;;;;;7.53;0.47;;;14.60;75.90;;;;;;6213093;23;20005;-70
2023/01/31 07:23:54;;;;;;;0.77;0.30;;;14.60;75.80;;;;;;6215299;23;20000;-70
2023/01/31 07:26:19;;;;;;;4.90;0.40;;;14.60;75.70;;;;;;6188037;23;20457;-70
2023/01/31 07:28:45;;;;;;;1.33;0.40;;;14.60;75.70;;;;;;6213507;23;20441;-70
2023/01/31 07:31:12;;;;;;;1.25;0.40;;;14.60;75.50;;;;;;6213124;23;20001;-70
2023/01/31 07:33:38;;;;;;;1.35;0.95;;;14.60;75.40;;;;;;6214830;23;20001;-70
2023/01/31 07:36:04;;;;;;;2.15;0.43;;;14.60;75.20;;;;;;6214505;23;20440;-71
2023/01/31 07:38:30;;;;;;;2.88;0.40;;;14.60;75.00;;;;;;6214641;23;20017;-71
2023/01/31 07:41:00;;;;;;;5.25;0.93;;;14.60;74.80;;;;;;6188366;23;20445;-71
2023/01/31 07:43:25;;;;;;;1.17;0.35;;;14.60;74.60;;;;;;6214506;23;20000;-71
2023/01/31 07:45:51;;;;;;;0.93;0.40;;;14.60;74.50;;;;;;6212791;23;20059;-71
2023/01/31 07:48:22;;;;;;;3.05;0.43;;;14.60;74.50;;;;;;6214463;23;20004;-70
2023/01/31 07:50:49;;;;;;;3.20;0.40;;;14.60;74.40;;;;;;6212993;23;19997;-70
2023/01/31 07:53:15;;;;;;;0.88;0.30;;;14.50;74.30;;;;;;6214324;23;20341;-70
2023/01/31 07:55:40;;;;;;;2.22;0.35;;;14.50;74.20;;;;;;6214649;23;20000;-70
2023/01/31 07:58:06;;;;;;;4.07;0.85;;;14.50;74.20;;;;;;6215009;23;20007;-69
2023/01/31 08:03:32;;;;;;;3.97;1.00;;;14.60;74.40;;;;;;6215015;23;20028;-69
2023/01/31 08:06:01;;;;;;;7.10;0.85;;;14.50;74.40;;;;;;6212280;23;20004;-69
2023/01/31 08:08:27;;;;;;;7.93;1.33;;;14.50;74.40;;;;;;6186911;23;20370;-69
2023/01/31 08:10:52;;;;;;;6.47;1.65;;;14.50;74.50;;;;;;6214172;23;20051;-69
2023/01/31 08:13:18;;;;;;;4.85;1.30;;;14.50;74.50;;;;;;6213743;23;20024;-69
2023/01/31 08:15:43;;;;;;;4.35;1.00;;;14.50;74.50;;;;;;6214085;23;20024;-69
2023/01/31 08:18:09;;;;;;;5.60;1.23;;;14.50;74.50;;;;;;6213077;23;20496;-69
2023/01/31 08:20:36;;;;;;;5.55;1.00;;;14.40;74.50;;;;;;6186466;23;20115;-69
2023/01/31 08:23:02;;;;;;;3.35;1.20;;;14.40;74.50;;;;;;6215126;23;19996;-69
2023/01/31 08:25:29;;;;;;;5.13;1.20;;;14.40;74.50;;;;;;6188146;23;20459;-69
2023/01/31 08:27:56;;;;;;;3.78;1.30;;;14.40;74.50;;;;;;6213507;23;20023;-69
2023/01/31 08:30:22;;;;;;;3.88;1.38;;;14.40;74.50;;;;;;6213383;23;20047;-69
2023/01/31 08:32:47;;;;;;;6.75;1.35;;;14.40;74.50;;;;;;6213540;23;20373;-69
2023/01/31 08:35:13;;;;;;;5.65;1.30;;;14.40;74.50;;;;;;6214642;23;20016;-69
2023/01/31 08:37:38;;;;;;;5.38;1.50;;;14.40;74.30;;;;;;6214868;23;20001;-69
2023/01/31 08:40:05;;;;;;;5.72;1.60;;;14.40;74.30;;;;;;6213759;23;20001;-69
2023/01/31 08:42:30;;;;;;;7.10;1.35;;;14.40;74.40;;;;;;6214612;23;20131;-69
2023/01/31 08:44:56;;;;;;;5.18;1.60;;;14.40;74.30;;;;;;6213461;23;20036;-69
2023/01/31 08:47:22;;;;;;;3.63;1.13;;;14.40;74.30;;;;;;6213571;23;20088;-69
2023/01/31 08:49:47;;;;;;;7.10;1.55;;;14.30;74.20;;;;;;6214388;23;20492;-69
2023/01/31 08:52:13;;;;;;;4.95;1.30;;;14.40;74.20;;;;;;6188480;23;20039;-69
2023/01/31 08:54:38;;;;;;;7.72;1.67;;;14.30;74.10;;;;;;6214500;23;20043;-69
2023/01/31 08:57:04;;;;;;;5.43;1.92;;;14.30;74.10;;;;;;6214740;23;20028;-69
2023/01/31 08:59:30;;;;;;;5.85;1.75;;;14.40;74.20;;;;;;6214536;23;20207;-69
2023/01/31 09:01:55;;;;;;;6.70;1.35;;;14.40;74.10;;;;;;6213321;23;20001;-69
2023/01/31 09:04:21;;;;;;;6.88;1.73;;;14.30;74.10;;;;;;6214287;23;20349;-69
2023/01/31 09:06:47;;;;;;;3.58;1.45;;;14.30;74.10;;;;;;6214533;23;20000;-69
2023/01/31 09:09:12;;;;;;;6.13;1.42;;;14.30;74.10;;;;;;6214747;23;20004;-69
2023/01/31 09:11:38;;;;;;;4.20;1.30;;;14.30;74.00;;;;;;6214563;23;20459;-69
2023/01/31 09:14:04;;;;;;;5.80;1.50;;;14.30;74.00;;;;;;6214592;23;20009;-69
2023/01/31 09:16:29;;;;;;;5.15;1.23;;;14.30;74.00;;;;;;6212831;23;20011;-69
2023/01/31 09:18:55;;;;;;;4.43;1.20;;;14.30;74.00;;;;;;6212912;23;20008;-69
2023/01/31 09:21:21;;;;;;;6.30;1.35;;;14.30;74.00;;;;;;6213095;23;20349;-69
2023/01/31 09:23:47;;;;;;;4.03;1.35;;;14.30;74.00;;;;;;6214497;23;20078;-69
2023/01/31 09:26:13;;;;;;;4.75;1.33;;;14.30;74.00;;;;;;6214213;23;20086;-69
2023/01/31 09:28:42;;;;;;;2.97;1.40;;;14.30;74.00;;;;;;6213071;23;20001;-69
2023/01/31 09:31:10;;;;;;;4.35;1.48;;;14.20;73.90;;;;;;6214620;23;20004;-69
2023/01/31 09:33:35;;;;;;;4.82;1.58;;;14.20;74.00;;;;;;6212807;23;20441;-69
2023/01/31 09:36:06;;;;;;;3.47;1.83;;;14.20;73.90;;;;;;6213112;23;20001;-69
2023/01/31 09:38:32;;;;;;;4.30;1.30;;;14.20;74.00;;;;;;6214288;23;20005;-69
2023/01/31 09:40:59;;;;;;;3.58;1.10;;;14.20;74.00;;;;;;6213118;23;20011;-69
2023/01/31 09:43:27;;;;;;;2.85;1.30;;;14.20;73.90;;;;;;6213401;23;20008;-69
2023/01/31 09:45:55;;;;;;;3.90;1.35;;;14.20;73.90;;;;;;6188329;23;20004;-69
2023/01/31 09:48:27;;;;;;;3.42;1.20;;;14.20;73.90;;;;;;6212771;23;20080;-69
2023/01/31 09:50:54;;;;;;;2.97;1.40;;;14.20;73.90;;;;;;6213102;23;20008;-69
2023/01/31 09:53:21;;;;;;;3.55;1.38;;;14.20;73.90;;;;;;6213081;23;20027;-69
2023/01/31 09:56:01;;;;;;;3.58;1.17;;;14.20;73.90;;;;;;6188033;23;20055;-69
2023/01/31 09:58:29;;;;;;;3.95;1.50;;;14.20;73.90;;;;;;6213002;23;20120;-69
2023/01/31 10:01:34;;;;;;;2.78;0.95;;;14.10;73.80;;;;;;6214198;23;20007;-69
2023/01/31 10:04:18;;;;;;;5.32;1.33;;;14.10;73.80;;;;;;6214264;23;20000;-69
2023/01/31 10:06:44;;;;;;;2.30;0.95;;;14.10;73.80;;;;;;6212778;23;20001;-69
2023/01/31 10:09:18;;;;;;;3.92;1.30;;;14.10;73.80;;;;;;6214451;23;20338;-69
2023/01/31 10:11:53;;;;;;;4.03;1.40;;;14.10;73.80;;;;;;6212734;23;20059;-69
2023/01/31 10:14:57;;;;;;;2.88;1.42;;;14.10;73.80;;;;;;6189363;23;20059;-69
2023/01/31 10:17:33;;;;;;;4.93;1.63;;;14.10;73.80;;;;;;6188599;23;20015;-69
2023/01/31 10:20:19;;;;;;;5.13;1.52;;;14.10;73.90;;;;;;6213179;23;20015;-69
2023/01/31 10:22:53;;;;;;;2.55;1.20;;;14.10;73.80;;;;;;6212953;23;20463;-69
2023/01/31 10:25:26;;;;;;;4.85;0.95;;;14.10;73.90;;;;;;6214010;23;20335;-69
2023/01/31 10:27:56;;;;;;;4.93;1.30;;;14.10;73.90;;;;;;6188600;23;20024;-69
2023/01/31 10:30:24;;;;;;;3.97;1.10;;;14.10;73.90;;;;;;6188284;23;20001;-69
2023/01/31 10:32:52;;;;;;;2.90;1.02;;;14.10;73.90;;;;;;6187957;23;20001;-69
2023/01/31 10:35:39;;;;;;;4.15;1.38;;;14.10;73.90;;;;;;6188206;23;20008;-69
2023/01/31 10:38:46;;;;;;;2.65;1.13;;;14.00;73.80;;;;;;6214132;23;20004;-69
2023/01/31 10:41:13;;;;;;;2.28;1.10;;;14.00;73.80;;;;;;6070880;23;20006;-69
2023/01/31 10:43:46;;;;;;;2.17;1.08;;;14.00;73.90;;;;;;6070921;23;20383;-70
2023/01/31 10:46:11;;;;;;;2.40;1.20;;;14.00;73.80;;;;;;6071202;23;20097;-69
2023/01/31 10:48:37;;;;;;;2.10;0.95;;;14.00;73.90;;;;;;6070769;23;20424;-69
2023/01/31 10:51:23;;;;;;;1.70;0.80;;;14.00;73.80;;;;;;6071026;23;20043;-69
2023/01/31 10:53:51;;;;;;;3.00;1.40;;;14.00;73.90;;;;;;6094709;23;20062;-69
2023/01/31 10:56:36;;;;;;;4.90;1.15;;;14.00;73.90;;;;;;6094944;23;20443;-69
2023/01/31 10:59:05;;;;;;;4.10;1.20;;;14.00;73.80;;;;;;6070485;23;20006;-69
2023/01/31 11:01:30;;;;;;;3.15;1.02;;;14.00;73.90;;;;;;6070582;23;20009;-69
2023/01/31 11:03:56;;;;;;;2.28;1.30;;;14.00;73.80;;;;;;6070730;23;20003;-69
2023/01/31 11:06:22;;;;;;;2.60;1.13;;;14.00;73.80;;;;;;6070681;23;20045;-69
2023/01/31 11:08:55;;;;;;;3.00;1.20;;;14.00;73.90;;;;;;6070407;23;20074;-69
2023/01/31 11:11:22;;;;;;;2.15;1.10;;;13.90;73.80;;;;;;6071965;23;20089;-69
2023/01/31 11:14:17;;;;;;;3.92;1.00;;;14.00;73.90;;;;;;6046260;23;20329;-69
2023/01/31 11:16:42;;;;;;;3.05;1.30;;;14.00;73.90;;;;;;6211985;23;20004;-70
2023/01/31 11:19:22;;;;;;;2.45;1.23;;;13.90;73.80;;;;;;6214297;23;20003;-69
2023/01/31 11:21:51;;;;;;;3.92;0.98;;;13.90;73.80;;;;;;6189838;23;20001;-69
2023/01/31 11:24:20;;;;;;;3.92;1.20;;;13.90;73.80;;;;;;6189234;23;20349;-69
2023/01/31 11:27:08;;;;;;;3.53;0.70;;;13.90;73.80;;;;;;6189039;23;20017;-69
2023/01/31 11:29:36;;;;;;;2.20;0.90;;;13.90;73.80;;;;;;6213979;23;20058;-69
2023/01/31 11:32:04;;;;;;;1.33;0.93;;;13.90;73.70;;;;;;6189238;23;20012;-69
2023/01/31 11:34:30;;;;;;;2.72;0.80;;;13.90;73.80;;;;;;6189567;23;20074;-69
2023/01/31 11:37:20;;;;;;;1.58;0.93;;;13.90;73.80;;;;;;6189412;23;20421;-70
2023/01/31 11:40:22;;;;;;;3.22;1.48;;;13.90;73.80;;;;;;6214013;23;20327;-69
2023/01/31 11:43:20;;;;;;;1.92;0.90;;;13.90;73.80;;;;;;6093857;23;20041;-69
2023/01/31 11:45:56;;;;;;;1.65;0.98;;;13.90;73.80;;;;;;6091033;23;20006;-69
2023/01/31 11:48:23;;;;;;;1.00;0.70;;;13.90;73.90;;;;;;6072187;23;20014;-69
2023/01/31 11:50:55;;;;;;;3.42;1.10;;;13.90;73.80;;;;;;6094142;23;20448;-69
2023/01/31 11:53:27;;;;;;;3.35;0.82;;;13.90;73.80;;;;;;6070200;23;20010;-69
2023/01/31 11:55:53;;;;;;;2.30;0.90;;;13.90;73.80;;;;;;6069986;23;20050;-69
2023/01/31 11:58:32;;;;;;;1.85;1.10;;;13.90;73.80;;;;;;6069983;23;20057;-69
2023/01/31 12:01:00;;;;;;;2.28;0.80;;;13.90;73.80;;;;;;6094304;23;20487;-69
2023/01/31 12:03:26;;;;;;;2.55;0.90;;;13.90;73.80;;;;;;6070313;23;20470;-69
2023/01/31 12:06:02;;;;;;;1.40;0.63;;;13.90;73.80;;;;;;6069779;23;20076;-69
2023/01/31 12:08:34;;;;;;;1.13;1.00;;;13.90;73.80;;;;;;6070102;23;20479;-69
2023/01/31 12:11:23;;;;;;;0.98;0.57;;;13.90;73.80;;;;;;6070378;23;20003;-69
2023/01/31 12:13:50;;;;;;;2.08;0.80;;;13.80;73.80;;;;;;6063794;23;20030;-69
2023/01/31 12:16:23;;;;;;;2.60;0.77;;;13.80;73.80;;;;;;6070214;23;20009;-69
2023/01/31 12:19:04;;;;;;;2.10;1.00;;;13.80;73.80;;;;;;6092675;23;20005;-69
2023/01/31 12:21:51;;;;;;;2.10;0.80;;;13.90;73.80;;;;;;6215103;23;19997;-69
2023/01/31 12:24:38;;;;;;;2.13;0.70;;;13.80;73.70;;;;;;6213551;23;20060;-69
2023/01/31 12:27:32;;;;;;;3.30;1.02;;;13.80;73.70;;;;;;6213114;23;20048;-69
2023/01/31 12:30:17;;;;;;;1.27;0.80;;;13.80;73.70;;;;;;6201132;23;20001;-69
2023/01/31 12:32:46;;;;;;;1.85;0.80;;;13.80;73.80;;;;;;6190515;23;20429;-70
2023/01/31 12:35:36;;;;;;;1.58;0.70;;;13.80;73.80;;;;;;6214913;23;20007;-69
2023/01/31 12:38:39;;;;;;;1.60;0.77;;;13.80;73.80;;;;;;6214807;23;20453;-69
2023/01/31 12:41:33;;;;;;;2.28;0.60;;;13.80;73.80;;;;;;6214539;23;20080;-69
2023/01/31 12:44:20;;;;;;;3.15;0.85;;;13.80;73.90;;;;;;6213142;23;20445;-69
2023/01/31 12:46:48;;;;;;;1.75;0.88;;;13.80;73.90;;;;;;6214610;23;20007;-69
2023/01/31 12:49:52;;;;;;;1.20;0.60;;;13.80;73.90;;;;;;6214813;23;20439;-69
2023/01/31 12:52:26;;;;;;;0.50;0.50;;;13.80;73.80;;;;;;6214917;23;19997;-69
2023/01/31 12:55:10;;;;;;;1.70;0.70;;;13.80;73.80;;;;;;6212852;23;20008;-69
2023/01/31 12:58:15;;;;;;;2.40;0.82;;;13.80;73.90;;;;;;6214706;23;20011;-69
2023/01/31 13:01:14;;;;;;;2.65;0.90;;;13.70;73.80;;;;;;6212772;23;20031;-69
2023/01/31 13:04:14;;;;;;;1.13;0.60;;;13.80;73.90;;;;;;6161902;23;20008;-69
2023/01/31 13:06:49;;;;;;;3.17;1.30;;;13.80;73.90;;;;;;6103610;23;20010;-69
2023/01/31 13:09:25;;;;;;;4.05;1.00;;;13.70;73.80;;;;;;6122522;23;20002;-69